Time;durP1;ratioP1;P1;durP2;ratioP2;P2;SDS_P1;SDS_P2;PMS_P1;PMS_P2;Temp;Humidity;BMP_temperature;BMP_pressure;BME280_temperature;BME280_humidity;BME280_pressure;Samples;Min_cycle;Max_cycle;Signal;HPM_P1;HPM_P2
2022/04/21 00:00:15;;;;;;;17.75;9.07;;;;;;;10.91;38.92;98329.59;4442788;32;20105;-88
2022/04/21 00:02:41;;;;;;;19.15;10.13;;;;;;;10.94;38.73;98332.06;4430063;32;20166;-88
2022/04/21 00:05:08;;;;;;;17.83;9.98;;;;;;;10.97;38.56;98321.31;4442895;32;20410;-88
2022/04/21 00:07:33;;;;;;;17.12;9.25;;;;;;;10.98;38.40;98321.22;4456985;32;20138;-88
2022/04/21 00:09:59;;;;;;;17.00;8.82;;;;;;;11.04;38.26;98324.41;4443084;32;20104;-87
2022/04/21 00:12:24;;;;;;;18.95;10.07;;;;;;;11.06;38.22;98327.78;4457102;32;20146;-87
2022/04/21 00:14:50;;;;;;;18.15;9.60;;;;;;;11.07;38.10;98325.06;4457191;32;20085;-90
2022/04/21 00:17:16;;;;;;;16.55;8.60;;;;;;;11.15;38.45;98319.31;4442836;32;20375;-90
2022/04/21 00:19:41;;;;;;;17.52;9.88;;;;;;;11.13;39.22;98315.94;4442817;32;20119;-88
2022/04/21 00:24:50;;;;;;;17.87;9.43;;;;;;;11.10;39.15;98319.59;4445001;32;20104;-87
2022/04/21 00:27:16;;;;;;;18.40;9.95;;;;;;;11.03;39.14;98310.41;4456788;32;20125;-87
2022/04/21 00:29:43;;;;;;;19.80;9.77;;;;;;;10.99;39.01;98312.38;4442692;32;20129;-87
2022/04/21 00:32:09;;;;;;;18.00;9.30;;;;;;;10.98;39.11;98312.47;4456783;32;20115;-87
2022/04/21 00:34:35;;;;;;;20.08;9.75;;;;;;;10.94;39.14;98318.88;4456689;32;20093;-88
2022/04/21 00:37:00;;;;;;;18.40;9.45;;;;;;;10.92;39.13;98307.59;4456568;32;20437;-87
2022/04/21 00:39:26;;;;;;;16.92;9.25;;;;;;;10.90;38.81;98315.59;4442509;32;20364;-88
2022/04/21 00:42:02;;;;;;;17.77;9.27;;;;;;;10.91;38.72;98312.00;4456603;32;20145;-88
2022/04/21 00:44:29;;;;;;;17.65;9.30;;;;;;;10.90;38.60;98317.37;4442772;32;20101;-88
2022/04/21 00:46:56;;;;;;;18.05;9.40;;;;;;;10.88;38.55;98314.84;4456673;32;20436;-88
2022/04/21 00:49:22;;;;;;;17.70;9.07;;;;;;;10.89;38.42;98313.06;4442593;32;20105;-88
2022/04/21 00:51:51;;;;;;;19.67;9.65;;;;;;;10.89;38.56;98318.31;4456585;32;20146;-88
2022/04/21 00:54:17;;;;;;;18.90;9.85;;;;;;;10.90;38.65;98322.66;4442457;32;20101;-88
2022/04/21 00:56:43;;;;;;;18.23;10.32;;;;;;;10.87;39.03;98315.78;4456485;32;20108;-88
2022/04/21 00:59:10;;;;;;;18.25;9.60;;;;;;;10.85;39.11;98319.47;4442071;32;20472;-87
2022/04/21 01:04:20;;;;;;;17.80;10.05;;;;;;;10.73;39.25;98314.00;4444656;32;20103;-90
2022/04/21 01:06:46;;;;;;;17.80;9.38;;;;;;;10.71;39.07;98315.06;4456390;32;20073;-87
2022/04/21 01:09:11;;;;;;;18.25;10.00;;;;;;;10.67;38.91;98313.56;4442438;32;20093;-88
2022/04/21 01:11:38;;;;;;;18.25;9.75;;;;;;;10.74;38.88;98314.84;4456427;32;20080;-88
2022/04/21 01:14:04;;;;;;;19.50;9.25;;;;;;;10.72;38.87;98314.97;4442401;32;20081;-88
2022/04/21 01:16:29;;;;;;;17.42;9.32;;;;;;;10.73;38.79;98318.44;4456550;32;20111;-88
2022/04/21 01:18:56;;;;;;;19.25;10.05;;;;;;;10.71;38.47;98310.63;4442154;32;20105;-88
2022/04/21 01:21:21;;;;;;;21.40;10.60;;;;;;;10.75;38.36;98317.41;4442191;32;20157;-88
2022/04/21 01:23:47;;;;;;;20.02;10.65;;;;;;;10.70;38.38;98311.59;4456403;32;20092;-88
2022/04/21 01:26:12;;;;;;;21.60;10.73;;;;;;;10.69;38.14;98311.69;4456291;32;20096;-88
2022/04/21 01:28:38;;;;;;;20.23;9.80;;;;;;;10.72;38.10;98304.44;4442240;32;20105;-88
2022/04/21 01:31:03;;;;;;;20.30;10.23;;;;;;;10.74;37.97;98306.94;4456154;32;20153;-88
2022/04/21 01:33:29;;;;;;;20.48;10.88;;;;;;;10.76;37.94;98305.09;4456304;32;20149;-88
2022/04/21 01:35:55;;;;;;;19.20;10.50;;;;;;;10.67;38.29;98310.94;4456301;32;20128;-88
2022/04/21 01:41:11;;;;;;;18.75;9.73;;;;;;;10.71;38.28;98304.53;4444310;32;20501;-89
2022/04/21 01:43:37;;;;;;;19.25;10.07;;;;;;;10.63;38.42;98307.66;4456373;32;20131;-88
2022/04/21 01:46:04;;;;;;;18.87;10.18;;;;;;;10.68;38.36;98302.06;4442073;32;20108;-88
2022/04/21 01:48:29;;;;;;;17.70;9.68;;;;;;;10.68;38.55;98304.72;4456013;32;20132;-88
2022/04/21 01:50:55;;;;;;;18.45;9.68;;;;;;;10.51;39.08;98301.34;4456261;32;20093;-87
2022/04/21 01:53:20;;;;;;;17.67;10.10;;;;;;;10.61;38.87;98304.25;4456137;32;20101;-88
2022/04/21 01:55:46;;;;;;;17.80;9.70;;;;;;;10.68;38.95;98302.06;4442114;32;20112;-87
2022/04/21 01:58:12;;;;;;;18.85;9.60;;;;;;;10.56;39.30;98296.63;4456381;32;20085;-87
2022/04/21 02:00:38;;;;;;;19.52;9.65;;;;;;;10.52;39.33;98294.28;4442142;32;20154;-87
2022/04/21 02:03:03;;;;;;;17.35;10.35;;;;;;;10.26;39.61;98296.72;4442433;32;20550;-87
2022/04/21 02:05:29;;;;;;;18.08;9.52;;;;;;;10.48;39.04;98290.16;4456287;32;20135;-87
2022/04/21 02:07:54;;;;;;;17.95;9.13;;;;;;;10.51;39.03;98282.91;4456296;32;20121;-87
2022/04/21 02:10:21;;;;;;;15.75;8.18;;;;;;;10.55;39.06;98281.78;4456250;32;20093;-87
2022/04/21 02:12:47;;;;;;;17.13;8.63;;;;;;;10.60;39.10;98281.47;4455986;32;20089;-87
2022/04/21 02:15:13;;;;;;;17.12;8.70;;;;;;;10.63;39.11;98276.03;4456006;32;20076;-87
2022/04/21 02:17:39;;;;;;;17.52;8.98;;;;;;;10.65;39.15;98278.56;4455821;32;20092;-87
2022/04/21 02:20:09;;;;;;;20.17;10.25;;;;;;;10.61;39.09;98281.38;4455866;32;20111;-88
2022/04/21 02:22:37;;;;;;;18.60;9.95;;;;;;;10.59;39.09;98279.81;4455881;32;20470;-87
2022/04/21 02:25:07;;;;;;;18.33;9.35;;;;;;;10.57;39.11;98272.00;4442355;32;20137;-88
2022/04/21 02:27:33;;;;;;;18.08;9.07;;;;;;;10.52;39.40;98273.22;4456199;32;20154;-88
2022/04/21 02:29:59;;;;;;;18.80;9.80;;;;;;;10.57;39.55;98269.34;4442069;32;20101;-88
2022/04/21 02:32:24;;;;;;;16.85;8.82;;;;;;;10.56;39.59;98272.91;4456132;32;20101;-88
2022/04/21 02:34:51;;;;;;;18.85;9.50;;;;;;;10.58;39.74;98278.09;4456133;32;20084;-88
2022/04/21 02:37:17;;;;;;;18.00;9.13;;;;;;;10.47;39.88;98278.78;4442098;32;20098;-88
2022/04/21 02:39:42;;;;;;;18.05;9.48;;;;;;;10.49;39.61;98282.16;4456094;32;20166;-88
2022/04/21 02:42:09;;;;;;;18.08;9.80;;;;;;;10.48;39.58;98288.38;4441879;32;20138;-87
2022/04/21 02:44:34;;;;;;;17.02;9.65;;;;;;;10.49;39.66;98290.06;4429461;32;20141;-88
2022/04/21 02:47:00;;;;;;;17.65;9.45;;;;;;;10.46;39.97;98282.34;4455958;32;20101;-87
2022/04/21 02:49:26;;;;;;;17.50;9.15;;;;;;;10.48;40.52;98277.81;4441928;32;20097;-87
2022/04/21 02:51:51;;;;;;;18.90;9.70;;;;;;;10.45;40.90;98283.31;4428944;32;20093;-87
2022/04/21 02:59:45;;;;;;;17.08;9.30;;;;;;;10.35;41.45;98282.16;4443584;32;20119;-87
2022/04/21 03:02:10;;;;;;;19.67;9.85;;;;;;;10.31;41.44;98280.66;4441585;32;20349;-87
2022/04/21 03:04:36;;;;;;;19.23;9.88;;;;;;;10.29;41.47;98291.25;4441500;32;20466;-88
2022/04/21 03:07:02;;;;;;;19.02;9.82;;;;;;;10.27;41.57;98281.75;4455586;32;20104;-87
2022/04/21 03:09:27;;;;;;;17.98;9.38;;;;;;;10.24;41.51;98278.37;4455634;32;20120;-87
2022/04/21 03:11:53;;;;;;;18.80;9.48;;;;;;;10.22;41.63;98280.25;4455575;32;20093;-88
2022/04/21 03:14:19;;;;;;;18.30;9.98;;;;;;;10.21;41.82;98280.34;4441478;32;20321;-87
2022/04/21 03:16:45;;;;;;;18.33;9.52;;;;;;;10.21;41.78;98282.97;4455440;32;20241;-90
2022/04/21 03:19:10;;;;;;;18.17;9.82;;;;;;;10.17;41.70;98277.06;4455605;32;20094;-90
2022/04/21 03:24:19;;;;;;;17.23;9.43;;;;;;;10.14;41.83;98265.88;4454615;32;20095;-89
2022/04/21 03:26:49;;;;;;;18.90;10.05;;;;;;;10.12;41.70;98265.97;4455408;32;20112;-90
2022/04/21 03:29:15;;;;;;;18.95;10.02;;;;;;;10.11;41.61;98277.44;4455337;32;20115;-90
2022/04/21 03:31:44;;;;;;;20.25;10.30;;;;;;;10.00;41.39;98279.88;4455348;32;20121;-88
2022/04/21 03:34:13;;;;;;;18.62;9.43;;;;;;;9.86;41.00;98278.06;4455383;32;20085;-88
2022/04/21 03:36:49;;;;;;;18.52;9.63;;;;;;;9.92;40.83;98272.44;4455257;32;20104;-88
2022/04/21 03:39:16;;;;;;;18.08;9.55;;;;;;;10.05;40.63;98272.56;4441919;32;20120;-90
2022/04/21 03:41:42;;;;;;;19.65;9.07;;;;;;;10.11;40.70;98279.22;4455189;32;20077;-89
2022/04/21 03:44:07;;;;;;;20.80;9.40;;;;;;;9.95;40.79;98276.69;4455124;32;20503;-89
2022/04/21 03:46:33;;;;;;;18.10;8.90;;;;;;;10.08;40.41;98282.03;4455092;32;20137;-89
2022/04/21 03:48:59;;;;;;;20.65;9.48;;;;;;;10.17;40.26;98277.06;4455068;32;20138;-90
2022/04/21 03:51:27;;;;;;;19.20;9.52;;;;;;;10.19;40.74;98282.22;4454994;32;20082;-89
2022/04/21 03:53:53;;;;;;;19.10;9.10;;;;;;;10.23;40.85;98278.47;4455101;32;20137;-89
2022/04/21 03:56:18;;;;;;;18.20;9.32;;;;;;;10.27;40.83;98274.69;4455047;32;20089;-87
2022/04/21 03:58:45;;;;;;;17.27;9.32;;;;;;;10.30;40.97;98278.94;4454786;32;20107;-87
2022/04/21 04:01:10;;;;;;;17.25;9.45;;;;;;;10.35;40.91;98282.16;4454860;32;20103;-87
2022/04/21 04:03:35;;;;;;;18.08;9.35;;;;;;;10.38;40.96;98277.56;4440867;32;20085;-87
2022/04/21 04:06:01;;;;;;;18.33;9.43;;;;;;;10.41;40.99;98280.00;4454746;32;20085;-88
2022/04/21 04:11:10;;;;;;;16.42;8.82;;;;;;;10.50;40.90;98283.84;4454839;32;20139;-87
2022/04/21 04:13:36;;;;;;;18.55;9.35;;;;;;;10.55;40.79;98291.47;4440851;32;20088;-88
2022/04/21 04:16:01;;;;;;;16.75;9.25;;;;;;;10.61;40.63;98288.47;4440879;32;20123;-89
2022/04/21 04:18:28;;;;;;;17.30;8.95;;;;;;;10.68;40.07;98292.41;4440814;32;20127;-89
2022/04/21 04:20:54;;;;;;;16.30;8.10;;;;;;;10.86;39.97;98287.75;4454957;32;20149;-90
2022/04/21 04:23:20;;;;;;;16.85;8.25;;;;;;;11.01;39.99;98285.94;4440783;32;20081;-89
2022/04/21 04:25:46;;;;;;;16.15;7.97;;;;;;;11.16;40.14;98292.84;4440884;32;20125;-90
2022/04/21 04:28:12;;;;;;;16.73;8.90;;;;;;;11.29;40.24;98284.13;4454908;32;20092;-88
2022/04/21 04:30:38;;;;;;;16.23;7.75;;;;;;;11.23;40.19;98288.00;4454503;32;20093;-89
2022/04/21 04:33:04;;;;;;;14.40;7.57;;;;;;;11.53;39.85;98285.16;4440560;32;20085;-88
2022/04/21 04:35:30;;;;;;;15.35;8.20;;;;;;;11.66;39.62;98285.16;4456050;32;20124;-89
2022/04/21 04:37:55;;;;;;;14.00;7.25;;;;;;;11.62;39.92;98288.94;4456706;32;20093;-88
2022/04/21 04:40:21;;;;;;;14.65;7.30;;;;;;;11.85;39.67;98292.69;4442499;32;20107;-89
2022/04/21 04:42:46;;;;;;;14.43;7.43;;;;;;;12.02;39.73;98290.75;4456531;32;20104;-89
2022/04/21 04:47:56;;;;;;;15.57;7.55;;;;;;;12.44;40.13;98286.91;4444718;32;20159;-88
2022/04/21 04:50:22;;;;;;;14.45;7.95;;;;;;;12.57;40.43;98286.87;4456584;32;20420;-89
2022/04/21 04:52:47;;;;;;;13.40;7.43;;;;;;;12.73;40.56;98281.38;4442546;32;20417;-88
2022/04/21 04:55:13;;;;;;;16.05;7.82;;;;;;;12.85;39.74;98277.84;4442575;32;20151;-91
2022/04/21 04:57:39;;;;;;;12.80;7.37;;;;;;;12.98;38.81;98280.44;4442637;32;20105;-89
2022/04/21 05:00:10;;;;;;;13.52;7.45;;;;;;;13.15;37.63;98284.47;4442674;32;20084;-90
2022/04/21 05:02:35;;;;;;;14.30;8.02;;;;;;;13.22;37.06;98283.09;4456763;32;20379;-90
2022/04/21 05:05:01;;;;;;;14.07;7.22;;;;;;;13.48;37.45;98293.56;4456641;32;20117;-89
2022/04/21 05:07:27;;;;;;;13.88;7.65;;;;;;;13.66;37.98;98301.94;4456839;32;20089;-89
2022/04/21 05:09:52;;;;;;;15.10;8.07;;;;;;;13.82;37.11;98291.88;4429487;32;20146;-88
2022/04/21 05:12:18;;;;;;;18.05;9.98;;;;;;;13.75;36.52;98299.47;4456513;32;20134;-89
2022/04/21 05:14:44;;;;;;;18.67;10.27;;;;;;;13.80;37.15;98290.31;4442509;32;20601;-88
2022/04/21 05:17:09;;;;;;;17.25;9.70;;;;;;;13.84;36.96;98295.25;4441944;32;20109;-88
2022/04/21 05:19:35;;;;;;;16.87;9.82;;;;;;;13.98;36.68;98288.06;4456253;32;20424;-88
2022/04/21 05:22:03;;;;;;;15.40;8.82;;;;;;;14.05;36.55;98289.28;4456274;32;20081;-89
2022/04/21 05:24:31;;;;;;;14.32;7.85;;;;;;;14.13;36.04;98279.78;4442136;32;20127;-90
2022/04/21 05:26:57;;;;;;;17.15;8.73;;;;;;;14.33;35.59;98294.16;4456383;32;20118;-89
2022/04/21 05:32:08;;;;;;;19.42;10.20;;;;;;;14.57;36.18;98290.56;4456281;32;20150;-90
2022/04/21 05:34:33;;;;;;;18.62;10.32;;;;;;;14.57;36.50;98287.91;4442153;32;20112;-91
2022/04/21 05:37:00;;;;;;;18.23;9.45;;;;;;;14.77;36.47;98296.09;4456301;32;20111;-90
2022/04/21 05:39:27;;;;;;;18.48;11.10;;;;;;;14.85;36.22;98288.34;4442110;32;20203;-88
2022/04/21 05:41:53;;;;;;;21.95;12.02;;;;;;;14.96;36.42;98291.00;4442224;32;20160;-89
2022/04/21 05:44:19;;;;;;;18.40;11.98;;;;;;;14.94;35.78;98291.09;4442321;32;20456;-89
2022/04/21 05:46:45;;;;;;;20.85;12.10;;;;;;;14.86;36.33;98295.34;4455686;32;20085;-89
2022/04/21 05:49:11;;;;;;;17.85;10.65;;;;;;;14.94;36.01;98292.94;4456152;32;20104;-89
2022/04/21 05:51:38;;;;;;;19.40;11.23;;;;;;;15.10;35.73;98288.09;4442088;32;20404;-89
2022/04/21 05:54:05;;;;;;;20.75;11.55;;;;;;;15.30;35.11;98278.47;4442073;32;20170;-89
2022/04/21 05:56:30;;;;;;;18.98;11.55;;;;;;;15.23;34.97;98284.41;4456158;32;20150;-89
2022/04/21 05:58:56;;;;;;;18.83;10.40;;;;;;;15.35;35.00;98283.41;4442045;32;20429;-90
2022/04/21 06:01:21;;;;;;;17.55;10.73;;;;;;;15.47;34.75;98278.87;4456045;32;20121;-91
2022/04/21 06:03:47;;;;;;;17.80;11.23;;;;;;;15.52;33.90;98284.66;4441874;32;20131;-91
2022/04/21 06:06:12;;;;;;;16.80;9.70;;;;;;;15.47;34.76;98287.72;4442038;32;20484;-89
2022/04/21 06:08:38;;;;;;;16.25;10.02;;;;;;;15.50;34.63;98276.00;4456124;32;20132;-89
2022/04/21 06:11:04;;;;;;;18.48;10.45;;;;;;;15.69;34.25;98284.09;4429028;32;20097;-90
2022/04/21 06:13:30;;;;;;;19.05;12.02;;;;;;;15.65;34.05;98280.03;4429015;32;20170;-90
2022/04/21 06:15:56;;;;;;;24.23;14.48;;;;;;;15.74;34.07;98286.41;4441981;32;20202;-90
2022/04/21 06:18:23;;;;;;;22.37;14.27;;;;;;;15.83;33.63;98282.97;4441795;32;20073;-88
2022/04/21 06:20:49;;;;;;;24.45;13.65;;;;;;;15.87;33.38;98276.44;4455987;32;20440;-89
2022/04/21 06:23:14;;;;;;;22.37;12.85;;;;;;;15.88;33.33;98279.94;4456026;32;20093;-90
2022/04/21 06:25:41;;;;;;;21.40;12.63;;;;;;;15.92;32.64;98276.88;4456011;32;20089;-89
2022/04/21 06:28:07;;;;;;;24.27;13.70;;;;;;;15.92;32.97;98273.41;4441976;32;20152;-90
2022/04/21 06:30:32;;;;;;;24.80;14.02;;;;;;;15.85;33.10;98277.53;4441815;32;20173;-90
2022/04/21 06:32:58;;;;;;;22.67;12.98;;;;;;;15.92;33.47;98278.72;4441878;32;20500;-88
2022/04/21 06:35:25;;;;;;;25.05;14.38;;;;;;;16.05;33.55;98276.69;4455934;32;20123;-88
2022/04/21 06:37:50;;;;;;;24.30;15.52;;;;;;;16.04;33.30;98275.00;4455901;32;20145;-89
2022/04/21 06:40:16;;;;;;;29.65;15.75;;;;;;;16.11;33.27;98278.81;4441707;32;20077;-91
2022/04/21 06:42:42;;;;;;;25.88;15.50;;;;;;;16.18;33.18;98272.97;4441757;32;20158;-91
2022/04/21 06:48:04;;;;;;;33.55;17.23;;;;;;;16.43;33.21;98271.69;4455921;32;20111;-89
2022/04/21 06:50:29;;;;;;;28.55;17.92;;;;;;;16.40;33.20;98271.97;4443235;32;20076;-89
2022/04/21 06:52:55;;;;;;;30.20;17.33;;;;;;;16.41;33.21;98274.50;4455848;32;20245;-90
2022/04/21 06:55:20;;;;;;;29.08;17.58;;;;;;;16.45;32.69;98275.06;4455723;32;20135;-89
2022/04/21 06:57:46;;;;;;;29.65;18.15;;;;;;;16.29;33.01;98272.91;4454580;32;20472;-90
2022/04/21 07:00:12;;;;;;;30.65;18.42;;;;;;;16.30;33.53;98272.78;4441522;32;20081;-92
2022/04/21 07:02:38;;;;;;;29.25;18.08;;;;;;;16.36;34.04;98275.84;4455744;32;20097;-87
2022/04/21 07:05:06;;;;;;;29.75;18.33;;;;;;;16.44;33.80;98271.56;4455790;32;20090;-90
2022/04/21 07:07:31;;;;;;;24.60;15.32;;;;;;;16.48;32.99;98273.00;4441534;32;20108;-89
2022/04/21 07:09:56;;;;;;;33.05;18.60;;;;;;;16.36;32.83;98281.19;4455587;32;20081;-86
2022/04/21 07:12:32;;;;;;;31.35;18.83;;;;;;;16.42;32.85;98278.84;4455622;32;20132;-89
2022/04/21 07:15:08;;;;;;;29.35;19.05;;;;;;;16.48;32.75;98275.66;4441758;32;20159;-88
2022/04/21 07:17:34;;;;;;;26.12;15.90;;;;;;;16.44;33.24;98274.22;4441335;32;20455;-87
2022/04/21 07:20:00;;;;;;;26.73;16.17;;;;;;;16.68;33.53;98270.41;4428509;32;20088;-86
2022/04/21 07:22:26;;;;;;;26.50;15.32;;;;;;;16.64;33.17;98276.97;4455605;32;20407;-89
2022/04/21 07:24:52;;;;;;;27.65;15.25;;;;;;;16.74;32.79;98275.16;4441372;32;20097;-88
2022/04/21 07:27:18;;;;;;;24.58;15.07;;;;;;;16.88;32.17;98269.53;4455558;32;20093;-85
2022/04/21 07:29:43;;;;;;;27.17;15.35;;;;;;;16.96;31.50;98267.97;4455590;32;20077;-87
2022/04/21 07:32:09;;;;;;;27.23;16.17;;;;;;;17.00;31.28;98272.91;4428743;32;20421;-87
2022/04/21 07:34:35;;;;;;;28.35;16.10;;;;;;;17.05;31.19;98269.81;4428518;32;20101;-88
2022/04/21 07:37:00;;;;;;;25.37;15.88;;;;;;;17.08;31.39;98266.91;4455154;32;20085;-87
2022/04/21 07:39:26;;;;;;;21.73;13.32;;;;;;;17.04;32.19;98262.81;4428617;32;20089;-86
2022/04/21 07:41:51;;;;;;;16.27;9.70;;;;;;;16.98;31.76;98266.00;4455255;32;20139;-86
2022/04/21 07:44:17;;;;;;;21.67;12.98;;;;;;;17.07;31.18;98267.84;4455486;32;20441;-83
2022/04/21 07:46:42;;;;;;;23.12;14.15;;;;;;;17.20;31.10;98264.94;4450745;32;20138;-84
2022/04/21 07:51:51;;;;;;;17.08;9.88;;;;;;;17.40;30.00;98257.81;4439238;32;20705;-83
2022/04/21 07:54:16;;;;;;;18.15;10.30;;;;;;;17.30;30.10;98253.31;4439504;32;20074;-85
2022/04/21 07:56:42;;;;;;;15.40;7.47;;;;;;;17.32;30.28;98263.81;4439046;32;20190;-87
2022/04/21 07:59:07;;;;;;;12.52;6.53;;;;;;;17.43;29.57;98250.38;4439020;32;20103;-85
2022/04/21 08:01:33;;;;;;;14.95;7.45;;;;;;;17.58;28.53;98247.31;4438878;32;20131;-90
2022/04/21 08:04:02;;;;;;;16.48;7.80;;;;;;;17.15;30.31;98245.88;4438942;32;20335;-88
2022/04/21 08:06:28;;;;;;;12.00;5.35;;;;;;;17.20;30.51;98256.97;4439429;32;20491;-89
2022/04/21 08:08:55;;;;;;;11.93;5.10;;;;;;;17.37;29.89;98252.78;4428558;32;20109;-88
2022/04/21 08:11:21;;;;;;;13.10;5.50;;;;;;;17.51;28.81;98251.50;4440642;32;20500;-87
2022/04/21 08:13:47;;;;;;;11.18;4.97;;;;;;;17.57;28.62;98248.28;4440479;32;20180;-88
2022/04/21 08:16:12;;;;;;;12.18;5.70;;;;;;;17.71;28.57;98244.31;4440749;32;20361;-88
2022/04/21 08:18:37;;;;;;;11.27;5.85;;;;;;;17.71;29.11;98250.50;4440366;32;20096;-86
2022/04/21 08:21:03;;;;;;;14.85;7.22;;;;;;;17.83;28.97;98248.53;4438710;32;20149;-86
2022/04/21 08:23:28;;;;;;;15.55;6.90;;;;;;;17.99;28.53;98253.28;4438912;32;20125;-84
2022/04/21 08:34:05;;;;;;;12.85;5.15;;;;;;;18.34;28.23;98243.78;4430734;32;20512;-89
2022/04/21 08:36:31;;;;;;;10.65;4.75;;;;;;;18.28;27.92;98238.03;4432391;32;20097;-89
2022/04/21 08:38:56;;;;;;;10.27;5.10;;;;;;;18.51;27.13;98242.19;4438152;32;20104;-89
2022/04/21 08:41:26;;;;;;;9.75;4.20;;;;;;;18.61;25.59;98245.63;4441031;32;20428;-89
2022/04/21 08:43:54;;;;;;;8.65;3.75;;;;;;;18.76;26.10;98243.31;4441089;32;20105;-87
2022/04/21 08:46:24;;;;;;;9.65;4.00;;;;;;;18.67;26.31;98251.19;4440632;32;20658;-86
2022/04/21 08:48:50;;;;;;;8.65;3.40;;;;;;;18.90;24.81;98255.34;4435106;32;20512;-84
2022/04/21 08:51:17;;;;;;;10.60;3.72;;;;;;;18.90;25.06;98250.00;4440492;32;20408;-87
2022/04/21 08:53:43;;;;;;;10.40;4.25;;;;;;;18.82;25.31;98251.59;4441234;32;20101;-86
2022/04/21 08:56:10;;;;;;;9.27;4.20;;;;;;;18.64;24.75;98250.69;4428326;32;20093;-86
2022/04/21 08:58:35;;;;;;;9.82;3.85;;;;;;;18.74;24.92;98250.63;4433329;32;20085;-91
2022/04/21 09:01:00;;;;;;;8.23;3.78;;;;;;;18.72;25.70;98255.28;4440488;32;20120;-88
2022/04/21 09:03:26;;;;;;;9.13;4.00;;;;;;;18.73;25.43;98259.62;4440525;32;20396;-86
2022/04/21 09:05:51;;;;;;;10.32;4.40;;;;;;;18.66;24.89;98265.56;4441053;32;20115;-77
2022/04/21 09:08:22;;;;;;;9.93;4.47;;;;;;;18.71;25.02;98259.75;4440784;32;20089;-88
2022/04/21 09:11:01;;;;;;;10.63;3.90;;;;;;;18.51;24.98;98259.03;4435142;32;20105;-89
2022/04/21 09:13:38;;;;;;;8.38;3.72;;;;;;;18.57;25.55;98261.09;4415098;32;20085;-84
2022/04/21 09:16:05;;;;;;;9.82;4.10;;;;;;;18.53;24.98;98258.88;4440674;32;20089;-83
2022/04/21 09:18:44;;;;;;;10.65;4.40;;;;;;;18.44;25.27;98257.91;4440865;32;20077;-85
2022/04/21 09:21:14;;;;;;;9.93;4.53;;;;;;;18.34;25.84;98249.94;4439656;32;20412;-83
2022/04/21 09:23:40;;;;;;;12.05;4.25;;;;;;;18.35;25.68;98261.44;4440474;32;20098;-84
2022/04/21 09:26:07;;;;;;;10.20;4.47;;;;;;;18.28;25.39;98262.03;4440393;32;20136;-84
2022/04/21 09:28:33;;;;;;;9.75;4.43;;;;;;;18.28;25.47;98255.87;4440383;32;20400;-82
2022/04/21 09:31:00;;;;;;;10.15;4.35;;;;;;;18.22;25.78;98265.28;4440648;32;20097;-86
2022/04/21 09:33:52;;;;;;;9.13;4.62;;;;;;;18.20;25.73;98269.09;4430201;32;20109;-83
2022/04/21 09:36:18;;;;;;;10.88;4.30;;;;;;;18.08;25.99;98261.28;4436878;32;20097;-85
2022/04/21 09:38:56;;;;;;;11.70;4.68;;;;;;;18.18;26.02;98263.91;4436118;32;20149;-86
2022/04/21 09:41:30;;;;;;;11.10;4.40;;;;;;;18.02;26.24;98267.19;4426580;32;20128;-87
2022/04/21 09:46:07;;;;;;;9.98;3.87;;;;;;;18.05;26.52;98263.37;4439896;32;20091;-93
2022/04/21 09:46:52;;;;;;;8.80;3.65;;;;;;;17.97;26.61;98268.59;4429612;32;20089;-90
2022/04/21 09:49:34;;;;;;;8.70;3.50;;;;;;;17.88;26.43;98260.44;4466071;32;20107;-91
2022/04/21 09:52:00;;;;;;;11.25;4.50;;;;;;;17.91;26.13;98255.84;4457694;32;20100;-91
2022/04/21 09:54:28;;;;;;;9.98;4.37;;;;;;;17.93;27.47;98261.88;4457074;32;20119;-91
2022/04/21 09:56:55;;;;;;;9.50;4.18;;;;;;;17.74;26.54;98258.22;4457568;32;20092;-93
2022/04/21 09:59:21;;;;;;;9.93;4.55;;;;;;;17.74;26.15;98265.38;4471903;32;20142;-95
2022/04/21 10:01:46;;;;;;;10.82;4.55;;;;;;;17.84;27.33;98256.41;4457249;32;20105;-92
2022/04/21 10:04:13;;;;;;;10.07;5.15;;;;;;;17.87;26.69;98252.62;4471429;32;20356;-94
2022/04/21 10:06:39;;;;;;;10.95;4.35;;;;;;;17.88;26.30;98251.62;4459079;32;20160;-95
2022/04/21 10:09:05;;;;;;;11.27;4.60;;;;;;;17.85;26.23;98242.09;4461649;32;20395;-95
2022/04/21 10:11:31;;;;;;;10.45;4.40;;;;;;;17.78;26.07;98243.62;4471948;32;20168;-95
2022/04/21 10:13:57;;;;;;;10.65;4.35;;;;;;;17.85;27.05;98244.75;4457518;32;20364;-95
2022/04/21 10:16:23;;;;;;;9.55;3.95;;;;;;;17.87;25.44;98240.13;4458399;32;20088;-95
2022/04/21 10:18:51;;;;;;;11.30;4.82;;;;;;;17.77;26.13;98236.62;4458725;32;20093;-94
2022/04/21 10:21:20;;;;;;;12.18;4.65;;;;;;;17.74;26.00;98244.06;4444685;32;20077;-94
2022/04/21 10:23:46;;;;;;;10.73;4.45;;;;;;;17.71;26.46;98239.84;4436498;32;20113;-94
2022/04/21 10:26:11;;;;;;;9.13;4.25;;;;;;;17.82;26.15;98236.19;4422944;32;20092;-93
2022/04/21 10:28:41;;;;;;;10.77;4.45;;;;;;;17.77;26.13;98236.62;4442987;32;20154;-94
2022/04/21 10:31:29;;;;;;;10.00;4.28;;;;;;;17.83;26.57;98233.37;4443474;32;20078;-96
2022/04/21 10:34:02;;;;;;;10.45;4.68;;;;;;;17.75;26.34;98235.94;4473489;32;20167;-93
2022/04/21 10:36:35;;;;;;;11.85;4.87;;;;;;;17.75;26.29;98233.25;4457204;32;20225;-89
2022/04/21 10:39:16;;;;;;;9.52;4.32;;;;;;;17.80;27.26;98228.31;4472259;32;20120;-94
2022/04/21 10:41:41;;;;;;;10.02;4.15;;;;;;;17.85;26.53;98231.44;4471741;32;20104;-94
2022/04/21 10:44:25;;;;;;;9.70;4.20;;;;;;;17.95;25.36;98226.09;4471007;32;20092;-92
2022/04/21 10:47:30;;;;;;;9.77;4.35;;;;;;;17.99;26.12;98226.66;4471651;32;20080;-88
2022/04/21 10:50:00;;;;;;;9.32;4.62;;;;;;;17.97;26.51;98224.13;4471731;32;20611;-96
2022/04/21 10:57:47;;;;;;;9.90;4.62;;;;;;;17.91;27.21;98214.03;4441118;32;20119;-96
2022/04/21 11:00:30;;;;;;;10.13;4.77;;;;;;;17.96;25.47;98205.59;4455271;27;20076;-96
2022/04/21 11:03:06;;;;;;;12.30;4.37;;;;;;;17.85;26.62;98214.62;4443889;32;20097;-92
2022/04/21 11:05:41;;;;;;;11.60;4.47;;;;;;;17.96;26.53;98208.28;4443035;32;20172;-91
2022/04/21 11:08:11;;;;;;;10.60;4.90;;;;;;;17.98;26.86;98211.63;4441748;32;20116;-94
2022/04/21 11:10:37;;;;;;;12.05;4.30;;;;;;;18.09;26.46;98200.78;4455423;32;20131;-92
2022/04/21 11:13:03;;;;;;;9.77;3.90;;;;;;;17.95;25.71;98204.78;4455044;32;20349;-95
2022/04/21 11:15:33;;;;;;;10.48;4.78;;;;;;;18.03;25.75;98194.22;4441704;32;20119;-93
2022/04/21 11:18:00;;;;;;;11.23;4.90;;;;;;;18.14;26.18;98197.69;4455401;32;20178;-93
2022/04/21 11:20:25;;;;;;;10.60;5.10;;;;;;;18.17;26.78;98197.41;4455247;32;20080;-95
2022/04/21 11:22:51;;;;;;;13.15;4.97;;;;;;;18.16;26.72;98201.91;4456727;32;20474;-93
2022/04/21 11:25:16;;;;;;;9.95;4.50;;;;;;;18.23;26.61;98192.34;4455222;32;20115;-94
2022/04/21 11:27:45;;;;;;;11.38;5.80;;;;;;;18.33;25.76;98196.75;4456774;32;20081;-93
2022/04/21 11:30:13;;;;;;;11.48;4.53;;;;;;;18.24;25.36;98187.84;4455370;32;20104;-94
2022/04/21 11:32:38;;;;;;;;;;;;;;;18.23;26.34;98199.47;4455987;32;20127;-94
2022/04/21 11:35:12;;;;;;;11.52;5.10;;;;;;;18.23;26.91;98189.66;4441453;32;20212;-92
2022/04/21 11:37:44;;;;;;;11.45;5.05;;;;;;;18.24;26.94;98191.34;4455392;32;20103;-92
2022/04/21 11:40:26;;;;;;;10.57;4.78;;;;;;;18.30;27.32;98194.41;4441081;32;20100;-93
2022/04/21 11:42:52;;;;;;;11.73;5.90;;;;;;;18.30;27.61;98191.75;4467766;32;20151;-90
2022/04/21 11:45:28;;;;;;;11.12;4.68;;;;;;;18.33;26.95;98183.44;4447269;32;20193;-92
2022/04/21 11:47:53;;;;;;;10.07;4.45;;;;;;;18.34;27.22;98182.47;4455691;32;20093;-94
2022/04/21 11:50:20;;;;;;;10.63;5.12;;;;;;;18.36;27.39;98183.97;4457241;32;20122;-93
2022/04/21 11:52:46;;;;;;;10.93;5.20;;;;;;;18.39;26.96;98180.19;4472927;32;20114;-95
2022/04/21 11:55:15;;;;;;;10.95;5.28;;;;;;;18.35;26.97;98184.12;4448471;32;20113;-92
2022/04/21 11:57:44;;;;;;;11.25;5.20;;;;;;;18.39;26.82;98175.69;4456287;32;20115;-91
2022/04/21 12:00:11;;;;;;;10.73;5.20;;;;;;;18.38;26.20;98175.84;4454446;32;20551;-92
2022/04/21 12:08:11;;;;;;;10.85;4.90;;;;;;;18.67;27.12;98165.00;4443115;32;20251;-93
2022/04/21 12:10:36;;;;;;;11.45;5.25;;;;;;;18.50;26.61;98163.13;4454998;32;20583;-93
2022/04/21 12:13:02;;;;;;;11.73;5.40;;;;;;;18.49;26.82;98175.66;4440772;32;20147;-95